Terminal Aerodrome Forecast
Issued by NWS

Home | Current Version | Previous Version | Text Only | Print | Product List | Glossary On
Versions: 1 2 3 4 5 6 7 8 9 10 11 12 13 14 15 16 17 18 19 20 21 22 23 24 25 26 27 28 29 30 31 32 33
000
FTUS42 KMFL 270310 AAA
TAFMIA
TAF AMD
KMIA 270310Z 2703/2724 12006KT P6SM FEW035 SCT100
     FM270500 00000KT P6SM SCT250
     FM271800 12010KT P6SM FEW040 SCT250=

USA.gov is the U.S. government's official web portal to all federal, state and local government web resources and services.